sensor_id;sensor_type;location;lat;lon;timestamp;temperature;humidity
70830;SHT30;58451;51.550;7.208;2023-02-15T00:01:26;2.18;79.30
70830;SHT30;58451;51.550;7.208;2023-02-15T00:02:58;2.17;79.32
70830;SHT30;58451;51.550;7.208;2023-02-15T00:04:29;2.16;79.32
70830;SHT30;58451;51.550;7.208;2023-02-15T00:06:19;2.13;79.40
70830;SHT30;58451;51.550;7.208;2023-02-15T00:07:51;2.13;79.42
70830;SHT30;58451;51.550;7.208;2023-02-15T00:09:23;2.11;79.47
70830;SHT30;58451;51.550;7.208;2023-02-15T00:11:07;2.11;79.47
70830;SHT30;58451;51.550;7.208;2023-02-15T00:12:43;2.09;79.47
70830;SHT30;58451;51.550;7.208;2023-02-15T00:14:17;2.08;79.52
70830;SHT30;58451;51.550;7.208;2023-02-15T00:15:54;2.07;79.55
70830;SHT30;58451;51.550;7.208;2023-02-15T00:17:28;2.06;79.57
70830;SHT30;58451;51.550;7.208;2023-02-15T00:19:01;2.03;79.60
70830;SHT30;58451;51.550;7.208;2023-02-15T00:20:34;2.02;79.60
70830;SHT30;58451;51.550;7.208;2023-02-15T00:22:06;2.00;79.67
70830;SHT30;58451;51.550;7.208;2023-02-15T00:23:38;1.97;79.72
70830;SHT30;58451;51.550;7.208;2023-02-15T00:25:10;1.96;79.70
70830;SHT30;58451;51.550;7.208;2023-02-15T00:26:42;1.95;79.77
70830;SHT30;58451;51.550;7.208;2023-02-15T00:28:15;1.93;79.83
70830;SHT30;58451;51.550;7.208;2023-02-15T00:29:47;1.93;79.82
70830;SHT30;58451;51.550;7.208;2023-02-15T00:31:19;1.90;79.88
70830;SHT30;58451;51.550;7.208;2023-02-15T00:32:52;1.89;79.88
70830;SHT30;58451;51.550;7.208;2023-02-15T00:34:24;1.86;79.88
70830;SHT30;58451;51.550;7.208;2023-02-15T00:36:00;1.82;79.92
70830;SHT30;58451;51.550;7.208;2023-02-15T00:37:34;1.82;79.97
70830;SHT30;58451;51.550;7.208;2023-02-15T00:39:06;1.79;79.97
70830;SHT30;58451;51.550;7.208;2023-02-15T00:40:39;1.76;80.00
70830;SHT30;58451;51.550;7.208;2023-02-15T00:42:11;1.76;80.02
70830;SHT30;58451;51.550;7.208;2023-02-15T00:43:43;1.73;80.00
70830;SHT30;58451;51.550;7.208;2023-02-15T00:45:14;1.71;80.03
70830;SHT30;58451;51.550;7.208;2023-02-15T00:46:49;1.68;80.03
70830;SHT30;58451;51.550;7.208;2023-02-15T00:48:21;1.67;80.07
70830;SHT30;58451;51.550;7.208;2023-02-15T00:49:53;1.65;80.10
70830;SHT30;58451;51.550;7.208;2023-02-15T00:51:25;1.63;80.10
70830;SHT30;58451;51.550;7.208;2023-02-15T00:52:57;1.62;80.15
70830;SHT30;58451;51.550;7.208;2023-02-15T00:54:29;1.60;80.15
70830;SHT30;58451;51.550;7.208;2023-02-15T00:56:01;1.57;80.18
70830;SHT30;58451;51.550;7.208;2023-02-15T00:57:37;1.56;80.22
70830;SHT30;58451;51.550;7.208;2023-02-15T00:59:09;1.55;80.22
70830;SHT30;58451;51.550;7.208;2023-02-15T01:00:42;1.52;80.23
70830;SHT30;58451;51.550;7.208;2023-02-15T01:02:16;1.50;80.25
70830;SHT30;58451;51.550;7.208;2023-02-15T01:03:53;1.48;80.30
70830;SHT30;58451;51.550;7.208;2023-02-15T01:05:25;1.46;80.28
70830;SHT30;58451;51.550;7.208;2023-02-15T01:06:57;1.43;80.30
70830;SHT30;58451;51.550;7.208;2023-02-15T01:08:28;1.42;80.30
70830;SHT30;58451;51.550;7.208;2023-02-15T01:10:01;1.39;80.30
70830;SHT30;58451;51.550;7.208;2023-02-15T01:11:32;1.37;80.32
70830;SHT30;58451;51.550;7.208;2023-02-15T01:13:04;1.35;80.35
70830;SHT30;58451;51.550;7.208;2023-02-15T01:14:37;1.34;80.37
70830;SHT30;58451;51.550;7.208;2023-02-15T01:16:09;1.32;80.35
70830;SHT30;58451;51.550;7.208;2023-02-15T01:17:41;1.32;80.40
70830;SHT30;58451;51.550;7.208;2023-02-15T01:19:15;1.30;80.42
70830;SHT30;58451;51.550;7.208;2023-02-15T01:20:47;1.27;80.40
70830;SHT30;58451;51.550;7.208;2023-02-15T01:22:19;1.26;80.42
70830;SHT30;58451;51.550;7.208;2023-02-15T01:23:50;1.24;80.45
70830;SHT30;58451;51.550;7.208;2023-02-15T01:25:23;1.23;80.48
70830;SHT30;58451;51.550;7.208;2023-02-15T01:26:55;1.21;80.50
70830;SHT30;58451;51.550;7.208;2023-02-15T01:28:27;1.19;80.50
70830;SHT30;58451;51.550;7.208;2023-02-15T01:29:59;1.18;80.52
70830;SHT30;58451;51.550;7.208;2023-02-15T01:31:30;1.18;80.58
70830;SHT30;58451;51.550;7.208;2023-02-15T01:33:02;1.17;80.57
70830;SHT30;58451;51.550;7.208;2023-02-15T01:34:35;1.16;80.60
70830;SHT30;58451;51.550;7.208;2023-02-15T01:36:07;1.13;80.60
70830;SHT30;58451;51.550;7.208;2023-02-15T01:37:38;1.12;80.63
70830;SHT30;58451;51.550;7.208;2023-02-15T01:39:10;1.09;80.63
70830;SHT30;58451;51.550;7.208;2023-02-15T01:40:42;1.08;80.70
70830;SHT30;58451;51.550;7.208;2023-02-15T01:42:20;1.06;80.70
70830;SHT30;58451;51.550;7.208;2023-02-15T01:43:56;1.04;80.72
70830;SHT30;58451;51.550;7.208;2023-02-15T01:45:31;1.03;80.72
70830;SHT30;58451;51.550;7.208;2023-02-15T01:47:03;1.01;80.73
70830;SHT30;58451;51.550;7.208;2023-02-15T01:48:35;0.99;80.80
70830;SHT30;58451;51.550;7.208;2023-02-15T01:50:36;0.96;80.75
70830;SHT30;58451;51.550;7.208;2023-02-15T01:52:14;0.95;80.77
70830;SHT30;58451;51.550;7.208;2023-02-15T01:53:53;0.93;80.80
70830;SHT30;58451;51.550;7.208;2023-02-15T01:55:35;0.91;80.83
70830;SHT30;58451;51.550;7.208;2023-02-15T01:57:13;0.90;80.90
70830;SHT30;58451;51.550;7.208;2023-02-15T01:58:52;0.88;80.90
70830;SHT30;58451;51.550;7.208;2023-02-15T02:00:29;0.88;80.92
70830;SHT30;58451;51.550;7.208;2023-02-15T02:02:01;0.88;80.90
70830;SHT30;58451;51.550;7.208;2023-02-15T02:03:39;0.85;80.90
70830;SHT30;58451;51.550;7.208;2023-02-15T02:05:17;0.83;80.90
70830;SHT30;58451;51.550;7.208;2023-02-15T02:06:49;0.81;80.92
70830;SHT30;58451;51.550;7.208;2023-02-15T02:08:23;0.80;80.95
70830;SHT30;58451;51.550;7.208;2023-02-15T02:09:57;0.78;81.00
70830;SHT30;58451;51.550;7.208;2023-02-15T02:11:33;0.78;81.00
70830;SHT30;58451;51.550;7.208;2023-02-15T02:13:06;0.75;81.00
70830;SHT30;58451;51.550;7.208;2023-02-15T02:14:40;0.73;81.00
70830;SHT30;58451;51.550;7.208;2023-02-15T02:22:32;0.65;81.10
70830;SHT30;58451;51.550;7.208;2023-02-15T02:30:59;0.55;81.07
70830;SHT30;58451;51.550;7.208;2023-02-15T02:33:20;0.52;81.08
70830;SHT30;58451;51.550;7.208;2023-02-15T02:35:11;0.51;81.10
70830;SHT30;58451;51.550;7.208;2023-02-15T02:37:54;0.49;81.10
70830;SHT30;58451;51.550;7.208;2023-02-15T02:39:36;0.48;81.10
70830;SHT30;58451;51.550;7.208;2023-02-15T02:43:35;0.45;81.10
70830;SHT30;58451;51.550;7.208;2023-02-15T02:45:16;0.44;81.13
70830;SHT30;58451;51.550;7.208;2023-02-15T02:47:02;0.42;81.18
70830;SHT30;58451;51.550;7.208;2023-02-15T02:48:40;0.41;81.20
70830;SHT30;58451;51.550;7.208;2023-02-15T02:50:15;0.40;81.20
70830;SHT30;58451;51.550;7.208;2023-02-15T02:52:03;0.40;81.20
70830;SHT30;58451;51.550;7.208;2023-02-15T02:54:07;0.38;81.27
70830;SHT30;58451;51.550;7.208;2023-02-15T02:55:41;0.38;81.30
70830;SHT30;58451;51.550;7.208;2023-02-15T02:57:19;0.38;81.30
70830;SHT30;58451;51.550;7.208;2023-02-15T02:59:02;0.37;81.30
70830;SHT30;58451;51.550;7.208;2023-02-15T03:02:38;0.34;81.40
70830;SHT30;58451;51.550;7.208;2023-02-15T03:04:20;0.33;81.40
70830;SHT30;58451;51.550;7.208;2023-02-15T03:06:09;0.33;81.40
70830;SHT30;58451;51.550;7.208;2023-02-15T03:07:49;0.30;81.40
70830;SHT30;58451;51.550;7.208;2023-02-15T03:09:28;0.31;81.42
70830;SHT30;58451;51.550;7.208;2023-02-15T03:11:15;0.29;81.48
70830;SHT30;58451;51.550;7.208;2023-02-15T03:12:48;0.28;81.48
70830;SHT30;58451;51.550;7.208;2023-02-15T03:14:21;0.28;81.50
70830;SHT30;58451;51.550;7.208;2023-02-15T03:15:53;0.27;81.50
70830;SHT30;58451;51.550;7.208;2023-02-15T03:17:47;0.26;81.50
70830;SHT30;58451;51.550;7.208;2023-02-15T03:19:27;0.25;81.60
70830;SHT30;58451;51.550;7.208;2023-02-15T03:21:03;0.26;81.58
70830;SHT30;58451;51.550;7.208;2023-02-15T03:22:41;0.25;81.60
70830;SHT30;58451;51.550;7.208;2023-02-15T03:24:23;0.24;81.60
70830;SHT30;58451;51.550;7.208;2023-02-15T03:26:04;0.23;81.70
70830;SHT30;58451;51.550;7.208;2023-02-15T03:28:00;0.23;81.70
70830;SHT30;58451;51.550;7.208;2023-02-15T03:29:39;0.21;81.70
70830;SHT30;58451;51.550;7.208;2023-02-15T03:31:11;0.19;81.70
70830;SHT30;58451;51.550;7.208;2023-02-15T03:32:47;0.19;81.70
70830;SHT30;58451;51.550;7.208;2023-02-15T03:34:22;0.18;81.70
70830;SHT30;58451;51.550;7.208;2023-02-15T03:37:55;0.16;81.78
70830;SHT30;58451;51.550;7.208;2023-02-15T03:39:33;0.16;81.73
70830;SHT30;58451;51.550;7.208;2023-02-15T03:41:09;0.14;81.78
70830;SHT30;58451;51.550;7.208;2023-02-15T03:42:48;0.13;81.78
70830;SHT30;58451;51.550;7.208;2023-02-15T03:44:32;0.12;81.78
70830;SHT30;58451;51.550;7.208;2023-02-15T03:46:37;0.12;81.80
70830;SHT30;58451;51.550;7.208;2023-02-15T03:48:18;0.10;81.80
70830;SHT30;58451;51.550;7.208;2023-02-15T03:50:10;0.09;81.82
70830;SHT30;58451;51.550;7.208;2023-02-15T03:52:08;0.07;81.80
70830;SHT30;58451;51.550;7.208;2023-02-15T03:53:45;0.07;81.80
70830;SHT30;58451;51.550;7.208;2023-02-15T03:55:20;0.05;81.85
70830;SHT30;58451;51.550;7.208;2023-02-15T03:56:51;0.06;81.88
70830;SHT30;58451;51.550;7.208;2023-02-15T03:58:45;0.05;81.90
70830;SHT30;58451;51.550;7.208;2023-02-15T04:00:37;0.02;81.90
70830;SHT30;58451;51.550;7.208;2023-02-15T04:06:09;0.00;81.90
70830;SHT30;58451;51.550;7.208;2023-02-15T04:07:40;0.00;81.90
70830;SHT30;58451;51.550;7.208;2023-02-15T04:09:12;-0.01;81.92
70830;SHT30;58451;51.550;7.208;2023-02-15T04:11:03;-0.02;81.92
70830;SHT30;58451;51.550;7.208;2023-02-15T04:12:35;-0.02;81.93
70830;SHT30;58451;51.550;7.208;2023-02-15T04:14:06;-0.03;81.97
70830;SHT30;58451;51.550;7.208;2023-02-15T04:15:57;-0.03;82.00
70830;SHT30;58451;51.550;7.208;2023-02-15T04:17:37;-0.03;81.98
70830;SHT30;58451;51.550;7.208;2023-02-15T04:19:10;-0.03;82.00
70830;SHT30;58451;51.550;7.208;2023-02-15T04:21:02;-0.05;82.00
70830;SHT30;58451;51.550;7.208;2023-02-15T04:22:52;-0.04;82.00
70830;SHT30;58451;51.550;7.208;2023-02-15T04:24:43;-0.04;82.00
70830;SHT30;58451;51.550;7.208;2023-02-15T04:26:33;-0.04;82.02
70830;SHT30;58451;51.550;7.208;2023-02-15T04:28:05;-0.05;82.02
70830;SHT30;58451;51.550;7.208;2023-02-15T04:29:38;-0.05;82.03
70830;SHT30;58451;51.550;7.208;2023-02-15T04:31:10;-0.05;82.07
70830;SHT30;58451;51.550;7.208;2023-02-15T04:32:42;-0.05;82.10
70830;SHT30;58451;51.550;7.208;2023-02-15T04:34:14;-0.06;82.07
70830;SHT30;58451;51.550;7.208;2023-02-15T04:35:46;-0.07;82.10
70830;SHT30;58451;51.550;7.208;2023-02-15T04:37:18;-0.07;82.13
70830;SHT30;58451;51.550;7.208;2023-02-15T04:38:49;-0.06;82.15
70830;SHT30;58451;51.550;7.208;2023-02-15T04:40:21;-0.06;82.15
70830;SHT30;58451;51.550;7.208;2023-02-15T04:41:53;-0.08;82.20
70830;SHT30;58451;51.550;7.208;2023-02-15T04:43:25;-0.07;82.20
70830;SHT30;58451;51.550;7.208;2023-02-15T04:44:56;-0.07;82.27
70830;SHT30;58451;51.550;7.208;2023-02-15T04:46:28;-0.06;82.27
70830;SHT30;58451;51.550;7.208;2023-02-15T04:48:00;-0.04;82.28
70830;SHT30;58451;51.550;7.208;2023-02-15T04:49:32;-0.06;82.28
70830;SHT30;58451;51.550;7.208;2023-02-15T04:51:07;-0.07;82.30
70830;SHT30;58451;51.550;7.208;2023-02-15T04:52:39;-0.08;82.30
70830;SHT30;58451;51.550;7.208;2023-02-15T04:54:11;-0.08;82.30
70830;SHT30;58451;51.550;7.208;2023-02-15T04:55:42;-0.09;82.32
70830;SHT30;58451;51.550;7.208;2023-02-15T04:57:14;-0.09;82.37
70830;SHT30;58451;51.550;7.208;2023-02-15T04:58:46;-0.09;82.32
70830;SHT30;58451;51.550;7.208;2023-02-15T05:00:19;-0.10;82.33
70830;SHT30;58451;51.550;7.208;2023-02-15T05:01:51;-0.10;82.37
70830;SHT30;58451;51.550;7.208;2023-02-15T05:03:23;-0.11;82.40
70830;SHT30;58451;51.550;7.208;2023-02-15T05:04:56;-0.10;82.40
70830;SHT30;58451;51.550;7.208;2023-02-15T05:06:28;-0.12;82.40
70830;SHT30;58451;51.550;7.208;2023-02-15T05:08:00;-0.12;82.40
70830;SHT30;58451;51.550;7.208;2023-02-15T05:09:32;-0.13;82.43
70830;SHT30;58451;51.550;7.208;2023-02-15T05:11:03;-0.13;82.40
70830;SHT30;58451;51.550;7.208;2023-02-15T05:12:35;-0.14;82.43
70830;SHT30;58451;51.550;7.208;2023-02-15T05:14:07;-0.14;82.42
70830;SHT30;58451;51.550;7.208;2023-02-15T05:15:39;-0.15;82.45
70830;SHT30;58451;51.550;7.208;2023-02-15T05:17:14;-0.16;82.48
70830;SHT30;58451;51.550;7.208;2023-02-15T05:18:46;-0.17;82.50
70830;SHT30;58451;51.550;7.208;2023-02-15T05:20:18;-0.17;82.50
70830;SHT30;58451;51.550;7.208;2023-02-15T05:21:50;-0.17;82.50
70830;SHT30;58451;51.550;7.208;2023-02-15T05:23:22;-0.16;82.50
70830;SHT30;58451;51.550;7.208;2023-02-15T05:24:53;-0.18;82.52
70830;SHT30;58451;51.550;7.208;2023-02-15T05:26:44;-0.19;82.50
70830;SHT30;58451;51.550;7.208;2023-02-15T05:28:35;-0.21;82.50
70830;SHT30;58451;51.550;7.208;2023-02-15T05:30:09;-0.22;82.53
70830;SHT30;58451;51.550;7.208;2023-02-15T05:31:43;-0.22;82.57
70830;SHT30;58451;51.550;7.208;2023-02-15T05:33:18;-0.23;82.52
70830;SHT30;58451;51.550;7.208;2023-02-15T05:34:51;-0.24;82.57
70830;SHT30;58451;51.550;7.208;2023-02-15T05:36:23;-0.25;82.57
70830;SHT30;58451;51.550;7.208;2023-02-15T05:37:55;-0.25;82.60
70830;SHT30;58451;51.550;7.208;2023-02-15T05:39:26;-0.24;82.60
70830;SHT30;58451;51.550;7.208;2023-02-15T05:40:58;-0.24;82.60
70830;SHT30;58451;51.550;7.208;2023-02-15T05:42:31;-0.24;82.60
70830;SHT30;58451;51.550;7.208;2023-02-15T05:44:02;-0.25;82.60
70830;SHT30;58451;51.550;7.208;2023-02-15T05:45:34;-0.26;82.60
70830;SHT30;58451;51.550;7.208;2023-02-15T05:47:06;-0.24;82.70
70830;SHT30;58451;51.550;7.208;2023-02-15T05:48:38;-0.24;82.68
70830;SHT30;58451;51.550;7.208;2023-02-15T05:50:10;-0.24;82.63
70830;SHT30;58451;51.550;7.208;2023-02-15T05:51:46;-0.24;82.70
70830;SHT30;58451;51.550;7.208;2023-02-15T05:53:17;-0.25;82.67
70830;SHT30;58451;51.550;7.208;2023-02-15T05:54:49;-0.26;82.70
70830;SHT30;58451;51.550;7.208;2023-02-15T05:56:21;-0.27;82.70
70830;SHT30;58451;51.550;7.208;2023-02-15T05:57:53;-0.28;82.73
70830;SHT30;58451;51.550;7.208;2023-02-15T05:59:25;-0.27;82.73
70830;SHT30;58451;51.550;7.208;2023-02-15T06:00:57;-0.27;82.77
70830;SHT30;58451;51.550;7.208;2023-02-15T06:02:29;-0.28;82.78
70830;SHT30;58451;51.550;7.208;2023-02-15T06:04:07;-0.27;82.78
70830;SHT30;58451;51.550;7.208;2023-02-15T06:05:42;-0.26;82.80
70830;SHT30;58451;51.550;7.208;2023-02-15T06:07:14;-0.28;82.80
70830;SHT30;58451;51.550;7.208;2023-02-15T06:08:49;-0.27;82.80
70830;SHT30;58451;51.550;7.208;2023-02-15T06:10:20;-0.28;82.80
70830;SHT30;58451;51.550;7.208;2023-02-15T06:11:52;-0.29;82.80
70830;SHT30;58451;51.550;7.208;2023-02-15T06:13:24;-0.30;82.80
70830;SHT30;58451;51.550;7.208;2023-02-15T06:14:55;-0.32;82.80
70830;SHT30;58451;51.550;7.208;2023-02-15T06:16:27;-0.31;82.80
70830;SHT30;58451;51.550;7.208;2023-02-15T06:17:59;-0.31;82.83
70830;SHT30;58451;51.550;7.208;2023-02-15T06:19:31;-0.31;82.83
70830;SHT30;58451;51.550;7.208;2023-02-15T06:21:03;-0.31;82.88
70830;SHT30;58451;51.550;7.208;2023-02-15T06:22:35;-0.31;82.85
70830;SHT30;58451;51.550;7.208;2023-02-15T06:24:08;-0.32;82.87
70830;SHT30;58451;51.550;7.208;2023-02-15T06:25:40;-0.34;82.88
70830;SHT30;58451;51.550;7.208;2023-02-15T06:27:18;-0.34;82.90
70830;SHT30;58451;51.550;7.208;2023-02-15T06:28:55;-0.34;82.90
70830;SHT30;58451;51.550;7.208;2023-02-15T06:30:27;-0.35;82.90
70830;SHT30;58451;51.550;7.208;2023-02-15T06:31:59;-0.34;82.93
70830;SHT30;58451;51.550;7.208;2023-02-15T06:33:32;-0.34;82.98
70830;SHT30;58451;51.550;7.208;2023-02-15T06:35:05;-0.34;82.95
70830;SHT30;58451;51.550;7.208;2023-02-15T06:36:38;-0.34;82.93
70830;SHT30;58451;51.550;7.208;2023-02-15T06:38:09;-0.34;82.93
70830;SHT30;58451;51.550;7.208;2023-02-15T06:39:41;-0.34;82.92
70830;SHT30;58451;51.550;7.208;2023-02-15T06:41:14;-0.33;82.97
70830;SHT30;58451;51.550;7.208;2023-02-15T06:42:46;-0.34;82.98
70830;SHT30;58451;51.550;7.208;2023-02-15T06:44:18;-0.31;82.98
70830;SHT30;58451;51.550;7.208;2023-02-15T06:45:49;-0.31;82.98
70830;SHT30;58451;51.550;7.208;2023-02-15T06:47:21;-0.31;83.00
70830;SHT30;58451;51.550;7.208;2023-02-15T06:48:53;-0.31;82.98
70830;SHT30;58451;51.550;7.208;2023-02-15T06:50:25;-0.31;82.98
70830;SHT30;58451;51.550;7.208;2023-02-15T06:51:56;-0.29;83.00
70830;SHT30;58451;51.550;7.208;2023-02-15T06:53:28;-0.28;83.00
70830;SHT30;58451;51.550;7.208;2023-02-15T06:55:00;-0.28;83.00
70830;SHT30;58451;51.550;7.208;2023-02-15T06:56:32;-0.25;83.00
70830;SHT30;58451;51.550;7.208;2023-02-15T06:58:04;-0.24;83.00
70830;SHT30;58451;51.550;7.208;2023-02-15T06:59:36;-0.24;83.00
70830;SHT30;58451;51.550;7.208;2023-02-15T07:01:08;-0.20;83.03
70830;SHT30;58451;51.550;7.208;2023-02-15T07:02:40;-0.21;83.00
70830;SHT30;58451;51.550;7.208;2023-02-15T07:04:12;-0.18;83.02
70830;SHT30;58451;51.550;7.208;2023-02-15T07:05:44;-0.16;83.02
70830;SHT30;58451;51.550;7.208;2023-02-15T07:07:16;-0.15;83.02
70830;SHT30;58451;51.550;7.208;2023-02-15T07:08:48;-0.12;83.03
70830;SHT30;58451;51.550;7.208;2023-02-15T07:10:20;-0.10;83.05
70830;SHT30;58451;51.550;7.208;2023-02-15T07:11:52;-0.08;83.00
70830;SHT30;58451;51.550;7.208;2023-02-15T07:13:43;-0.06;83.00
70830;SHT30;58451;51.550;7.208;2023-02-15T07:15:15;-0.04;83.00
70830;SHT30;58451;51.550;7.208;2023-02-15T07:16:50;-0.01;83.00
70830;SHT30;58451;51.550;7.208;2023-02-15T07:18:22;0.01;83.00
70830;SHT30;58451;51.550;7.208;2023-02-15T07:19:54;0.05;83.03
70830;SHT30;58451;51.550;7.208;2023-02-15T07:21:26;0.09;83.00
70830;SHT30;58451;51.550;7.208;2023-02-15T07:22:58;0.12;83.00
70830;SHT30;58451;51.550;7.208;2023-02-15T07:24:30;0.16;83.00
70830;SHT30;58451;51.550;7.208;2023-02-15T07:26:02;0.19;82.98
70830;SHT30;58451;51.550;7.208;2023-02-15T07:27:36;0.25;82.95
70830;SHT30;58451;51.550;7.208;2023-02-15T07:29:09;0.28;82.93
70830;SHT30;58451;51.550;7.208;2023-02-15T07:30:40;0.31;82.98
70830;SHT30;58451;51.550;7.208;2023-02-15T07:32:12;0.37;82.95
70830;SHT30;58451;51.550;7.208;2023-02-15T07:33:44;0.43;82.98
70830;SHT30;58451;51.550;7.208;2023-02-15T07:35:16;0.48;82.97
70830;SHT30;58451;51.550;7.208;2023-02-15T07:36:50;0.52;82.95
70830;SHT30;58451;51.550;7.208;2023-02-15T07:38:22;0.58;82.93
70830;SHT30;58451;51.550;7.208;2023-02-15T07:39:57;0.63;82.93
70830;SHT30;58451;51.550;7.208;2023-02-15T07:41:29;0.68;82.93
70830;SHT30;58451;51.550;7.208;2023-02-15T07:43:00;0.73;82.90
70830;SHT30;58451;51.550;7.208;2023-02-15T07:44:32;0.79;82.90
70830;SHT30;58451;51.550;7.208;2023-02-15T07:46:05;0.83;82.93
70830;SHT30;58451;51.550;7.208;2023-02-15T07:47:41;0.91;82.92
70830;SHT30;58451;51.550;7.208;2023-02-15T07:49:13;0.96;82.90
70830;SHT30;58451;51.550;7.208;2023-02-15T07:50:46;1.03;82.90
70830;SHT30;58451;51.550;7.208;2023-02-15T07:52:20;1.08;82.88
70830;SHT30;58451;51.550;7.208;2023-02-15T07:53:52;1.15;82.85
70830;SHT30;58451;51.550;7.208;2023-02-15T07:55:24;1.21;82.85
70830;SHT30;58451;51.550;7.208;2023-02-15T07:56:56;1.27;82.85
70830;SHT30;58451;51.550;7.208;2023-02-15T07:58:28;1.34;82.83
70830;SHT30;58451;51.550;7.208;2023-02-15T08:00:23;1.42;82.80
70830;SHT30;58451;51.550;7.208;2023-02-15T08:01:58;1.49;82.78
70830;SHT30;58451;51.550;7.208;2023-02-15T08:03:30;1.56;82.77
70830;SHT30;58451;51.550;7.208;2023-02-15T08:05:02;1.63;82.78
70830;SHT30;58451;51.550;7.208;2023-02-15T08:06:35;1.71;82.82
70830;SHT30;58451;51.550;7.208;2023-02-15T08:08:07;1.79;82.80
70830;SHT30;58451;51.550;7.208;2023-02-15T08:10:00;1.89;82.73
70830;SHT30;58451;51.550;7.208;2023-02-15T08:11:33;1.97;82.73
70830;SHT30;58451;51.550;7.208;2023-02-15T08:13:11;2.06;82.70
70830;SHT30;58451;51.550;7.208;2023-02-15T08:14:42;2.14;82.63
70830;SHT30;58451;51.550;7.208;2023-02-15T08:16:14;2.22;82.65
70830;SHT30;58451;51.550;7.208;2023-02-15T08:17:46;2.31;82.62
70830;SHT30;58451;51.550;7.208;2023-02-15T08:19:22;2.40;82.62
70830;SHT30;58451;51.550;7.208;2023-02-15T08:20:57;2.51;82.55
70830;SHT30;58451;51.550;7.208;2023-02-15T08:22:28;2.61;82.53
70830;SHT30;58451;51.550;7.208;2023-02-15T08:24:02;2.71;82.50
70830;SHT30;58451;51.550;7.208;2023-02-15T08:25:35;2.79;82.45
70830;SHT30;58451;51.550;7.208;2023-02-15T08:27:07;2.86;82.43
70830;SHT30;58451;51.550;7.208;2023-02-15T08:28:42;2.96;82.43
70830;SHT30;58451;51.550;7.208;2023-02-15T08:30:14;3.05;82.37
70830;SHT30;58451;51.550;7.208;2023-02-15T08:31:46;3.16;82.33
70830;SHT30;58451;51.550;7.208;2023-02-15T08:33:18;3.26;82.32
70830;SHT30;58451;51.550;7.208;2023-02-15T08:34:50;3.36;82.28
70830;SHT30;58451;51.550;7.208;2023-02-15T08:36:26;3.46;82.25
70830;SHT30;58451;51.550;7.208;2023-02-15T08:38:01;3.58;82.17
70830;SHT30;58451;51.550;7.208;2023-02-15T08:39:32;3.69;82.15
70830;SHT30;58451;51.550;7.208;2023-02-15T08:41:11;3.78;82.07
70830;SHT30;58451;51.550;7.208;2023-02-15T08:42:51;3.90;82.02
70830;SHT30;58451;51.550;7.208;2023-02-15T08:44:23;3.99;81.95
70830;SHT30;58451;51.550;7.208;2023-02-15T08:45:55;4.07;81.88
70830;SHT30;58451;51.550;7.208;2023-02-15T08:47:27;4.16;81.83
70830;SHT30;58451;51.550;7.208;2023-02-15T08:48:59;4.27;81.77
70830;SHT30;58451;51.550;7.208;2023-02-15T08:50:31;4.38;81.72
70830;SHT30;58451;51.550;7.208;2023-02-15T08:52:03;4.50;81.63
70830;SHT30;58451;51.550;7.208;2023-02-15T08:53:36;4.60;81.60
70830;SHT30;58451;51.550;7.208;2023-02-15T08:55:10;4.74;81.48
70830;SHT30;58451;51.550;7.208;2023-02-15T08:56:42;4.86;81.37
70830;SHT30;58451;51.550;7.208;2023-02-15T08:58:15;4.98;81.23
70830;SHT30;58451;51.550;7.208;2023-02-15T08:59:47;5.10;81.12
70830;SHT30;58451;51.550;7.208;2023-02-15T09:01:21;5.21;80.97
70830;SHT30;58451;51.550;7.208;2023-02-15T09:02:56;5.31;80.83
70830;SHT30;58451;51.550;7.208;2023-02-15T09:04:28;5.42;80.73
70830;SHT30;58451;51.550;7.208;2023-02-15T09:06:00;5.54;80.58
70830;SHT30;58451;51.550;7.208;2023-02-15T09:07:33;5.65;80.47
70830;SHT30;58451;51.550;7.208;2023-02-15T09:09:05;5.77;80.30
70830;SHT30;58451;51.550;7.208;2023-02-15T09:10:38;5.89;80.15
70830;SHT30;58451;51.550;7.208;2023-02-15T09:12:10;5.97;79.98
70830;SHT30;58451;51.550;7.208;2023-02-15T09:13:42;6.07;79.80
70830;SHT30;58451;51.550;7.208;2023-02-15T09:15:14;6.17;79.63
70830;SHT30;58451;51.550;7.208;2023-02-15T09:16:46;6.28;79.42
70830;SHT30;58451;51.550;7.208;2023-02-15T09:18:20;6.37;79.27
70830;SHT30;58451;51.550;7.208;2023-02-15T09:19:52;6.46;79.07
70830;SHT30;58451;51.550;7.208;2023-02-15T09:21:24;6.56;78.82
70830;SHT30;58451;51.550;7.208;2023-02-15T09:22:57;6.65;78.68
70830;SHT30;58451;51.550;7.208;2023-02-15T09:24:31;6.72;78.47
70830;SHT30;58451;51.550;7.208;2023-02-15T09:26:07;6.80;78.35
70830;SHT30;58451;51.550;7.208;2023-02-15T09:27:44;6.89;78.25
70830;SHT30;58451;51.550;7.208;2023-02-15T09:29:16;6.97;78.02
70830;SHT30;58451;51.550;7.208;2023-02-15T09:30:49;7.05;77.72
70830;SHT30;58451;51.550;7.208;2023-02-15T09:32:21;7.13;77.60
70830;SHT30;58451;51.550;7.208;2023-02-15T09:33:53;7.21;77.47
70830;SHT30;58451;51.550;7.208;2023-02-15T09:35:26;7.30;77.27
70830;SHT30;58451;51.550;7.208;2023-02-15T09:36:58;7.41;77.05
70830;SHT30;58451;51.550;7.208;2023-02-15T09:38:29;7.49;76.88
70830;SHT30;58451;51.550;7.208;2023-02-15T09:40:01;7.59;76.73
70830;SHT30;58451;51.550;7.208;2023-02-15T09:42:25;7.67;76.53
70830;SHT30;58451;51.550;7.208;2023-02-15T09:43:42;7.78;76.30
70830;SHT30;58451;51.550;7.208;2023-02-15T10:13:09;9.59;68.67
70830;SHT30;58451;51.550;7.208;2023-02-15T10:22:47;10.19;69.57
70830;SHT30;58451;51.550;7.208;2023-02-15T10:26:33;10.41;67.37
70830;SHT30;58451;51.550;7.208;2023-02-15T10:28:20;10.52;65.65
70830;SHT30;58451;51.550;7.208;2023-02-15T10:32:24;10.80;66.78
70830;SHT30;58451;51.550;7.208;2023-02-15T10:36:07;11.08;65.90
70830;SHT30;58451;51.550;7.208;2023-02-15T10:52:20;12.21;63.93
70830;SHT30;58451;51.550;7.208;2023-02-15T10:56:19;12.44;60.30
70830;SHT30;58451;51.550;7.208;2023-02-15T10:58:05;12.58;61.25
70830;SHT30;58451;51.550;7.208;2023-02-15T11:01:54;12.82;60.65
70830;SHT30;58451;51.550;7.208;2023-02-15T11:06:04;13.00;53.93
70830;SHT30;58451;51.550;7.208;2023-02-15T11:07:44;13.03;53.73
70830;SHT30;58451;51.550;7.208;2023-02-15T11:09:20;13.11;57.55
70830;SHT30;58451;51.550;7.208;2023-02-15T11:10:57;13.17;57.97
70830;SHT30;58451;51.550;7.208;2023-02-15T11:12:33;13.22;55.02
70830;SHT30;58451;51.550;7.208;2023-02-15T11:14:10;13.29;56.37
70830;SHT30;58451;51.550;7.208;2023-02-15T11:15:53;13.35;55.65
70830;SHT30;58451;51.550;7.208;2023-02-15T11:17:33;13.40;57.23
70830;SHT30;58451;51.550;7.208;2023-02-15T11:22:33;13.52;55.33
70830;SHT30;58451;51.550;7.208;2023-02-15T11:24:13;13.55;56.63
70830;SHT30;58451;51.550;7.208;2023-02-15T11:25:56;13.59;54.12
70830;SHT30;58451;51.550;7.208;2023-02-15T11:27:46;13.63;53.60
70830;SHT30;58451;51.550;7.208;2023-02-15T11:31:24;13.80;55.25
70830;SHT30;58451;51.550;7.208;2023-02-15T11:33:01;13.89;55.17
70830;SHT30;58451;51.550;7.208;2023-02-15T11:34:38;13.94;52.23
70830;SHT30;58451;51.550;7.208;2023-02-15T11:36:33;14.05;53.33
70830;SHT30;58451;51.550;7.208;2023-02-15T11:40:03;14.20;53.47
70830;SHT30;58451;51.550;7.208;2023-02-15T11:41:55;14.19;49.90
70830;SHT30;58451;51.550;7.208;2023-02-15T11:43:39;14.24;51.52
70830;SHT30;58451;51.550;7.208;2023-02-15T11:45:30;14.32;53.27